METAR Data
IDs: Format: Raw Decoded Include TAF

Data at: 0529 UTC 24 Sep 2018

KW78 240510Z AUTO 00000KT 7SM OVC005 17/16 A3022 RMK AO1 T01720164
KW78 240450Z AUTO 02003KT 4SM OVC005 17/17 A3022 RMK AO1 T01720165
KW78 240430Z AUTO 00000KT 3SM OVC005 17/17 A3022 RMK AO1 T01720165
KW78 240410Z AUTO 00000KT 3SM OVC005 17/17 A3022 RMK AO1 T01730165
KW78 240350Z AUTO 02003KT 3SM OVC005 17/17 A3022 RMK AO1 T01720165
KW78 240330Z AUTO 00000KT 4SM OVC005 17/17 A3022 RMK AO1 T01720165
KW78 240310Z AUTO 04003KT 4SM OVC005 17/16 A3021 RMK AO1 T01710164
KW78 240250Z AUTO 03004KT 4SM OVC005 17/16 A3021 RMK AO1 T01720164
KW78 240230Z AUTO 00000KT 5SM OVC005 17/17 A3021 RMK AO1 T01720165
KW78 240210Z AUTO 00000KT 10SM OVC007 17/17 A3021 RMK AO1 T01730165
KW78 240150Z AUTO 00000KT 10SM OVC007 17/17 A3020 RMK AO1 T01730165
KW78 240130Z AUTO 00000KT 10SM OVC007 17/17 A3020 RMK AO1 T01720165
KW78 240111Z AUTO 00000KT 10SM OVC007 17/17 A3019 RMK AO2
KW78 240050Z AUTO 04004KT 10SM OVC007 17/17 A3019 RMK AO1 T01720165
KW78 240030Z AUTO 02006KT 10SM OVC007 17/17 A3019 RMK AO1 T01720165
KW78 240010Z AUTO 01006KT 10SM OVC007 17/17 A3018 RMK AO1 T01720165
KW78 232350Z AUTO 00000KT 10SM OVC007 17/17 A3017 RMK AO1 T01730166
KW78 232330Z AUTO 03006KT 10SM OVC009 18/17 A3016 RMK AO1 T01750166
KW78 232310Z AUTO 03005KT 10SM OVC009 18/17 A3017 RMK AO1 T01750167
KW78 232250Z AUTO 03004KT 10SM OVC009 18/17 A3016 RMK AO1 T01790171
KW78 232230Z AUTO 04004KT 10SM OVC009 18/17 A3016 RMK AO1 T01800172
KW78 232210Z AUTO 01004KT 10SM OVC009 18/18 A3015 RMK AO1 T01830175
KW78 232150Z AUTO 04003KT 10SM OVC009 19/18 A3016 RMK AO1 T01850175
KW78 232130Z AUTO 02004KT 10SM OVC009 19/17 A3016 RMK AO1 T01850174
KW78 232110Z AUTO 00000KT 10SM OVC009 18/18 A3016 RMK AO1 T01830175
KW78 232050Z AUTO 03004KT 10SM OVC009 19/18 A3015 RMK AO1 T01850175
KW78 232030Z AUTO 36003KT 10SM OVC009 18/18 A3015 RMK AO1 T01830175
KW78 232010Z AUTO 02003KT 10SM OVC009 19/17 A3015 RMK AO1 T01850174
KW78 231950Z AUTO 00000KT 10SM OVC009 19/17 A3015 RMK AO1 T01880173
KW78 231930Z AUTO 00000KT 10SM OVC009 19/17 A3015 RMK AO1 T01850172
KW78 231910Z AUTO 00000KT 10SM OVC009 18/17 A3015 RMK AO1 T01830170
KW78 231850Z AUTO 02004KT 10SM OVC009 18/17 A3016 RMK AO1 T01810170
KW78 231830Z AUTO 04003KT 10SM OVC009 18/17 A3016 RMK AO1 T01800168
KW78 231810Z AUTO 05003KT 10SM OVC007 18/17 A3017 RMK AO1 T01810169
KW78 231750Z AUTO 05003KT 10SM OVC007 18/17 A3017 RMK AO1 T01820167
KW78 231730Z AUTO 01004KT 7SM OVC005 17/16 A3018 RMK AO1 T01710162
KW78 231710Z AUTO 01004KT 10SM OVC005 17/16 A3018 RMK AO1 T01700162
KW78 231650Z AUTO 02004KT 7SM OVC005 18/17 A3018 RMK AO1 T01750166
KW78 231630Z AUTO 04004KT 10SM OVC005 17/16 A3018 RMK AO1 T01700162
KW78 231610Z AUTO 03004KT 7SM OVC005 17/16 A3019 RMK AO1 T01650157
KW78 231550Z AUTO 36003KT 5SM OVC005 16/16 A3019 RMK AO1 T01620155
KW78 231530Z AUTO 36003KT 4SM OVC005 16/15 A3019 RMK AO1 T01610154
KW78 231510Z AUTO 02004KT 7SM OVC003 17/16 A3019 RMK AO1 T01650157
KW78 231450Z AUTO 04003KT 10SM OVC003 16/16 A3019 RMK AO1 T01630155
KW78 231430Z AUTO 04003KT 10SM OVC003 16/16 A3019 RMK AO1 T01630155
KW78 231410Z AUTO 02005KT 7SM OVC003 16/15 A3018 RMK AO1 T01610154
KW78 231350Z AUTO 02006KT 4SM OVC003 16/15 A3018 RMK AO1 T01610154
KW78 231330Z AUTO 02004KT 4SM OVC003 16/16 A3017 RMK AO1 T01620155
KW78 231310Z AUTO 36004KT 3SM OVC003 16/16 A3016 RMK AO1 T01640155
KW78 231250Z AUTO 03004KT 3SM OVC003 16/16 A3016 RMK AO1 T01630155
KW78 231230Z AUTO 01003KT 2 1/2SM OVC003 17/16 A3015 RMK AO1 T01650156
KW78 231210Z AUTO 01003KT 2SM OVC003 17/16 A3015 RMK AO1 T01670160
KW78 231150Z AUTO 01003KT 2SM OVC003 17/16 A3015 RMK AO1 T01680160
KW78 231130Z AUTO 04005KT 2 1/2SM OVC003 17/16 A3014 RMK AO1 T01670160
KW78 231110Z AUTO 02003KT 3SM OVC003 17/16 A3014 RMK AO1 T01670160
KW78 231050Z AUTO 01004KT 3SM OVC003 17/16 A3014 RMK AO1 T01670160
KW78 231030Z AUTO 02004KT 3SM OVC003 17/16 A3013 RMK AO1 T01700161
KW78 231010Z AUTO 01004KT 3SM OVC005 17/17 A3013 RMK AO1 T01720165
KW78 230950Z AUTO 03005KT 7SM OVC005 18/17 A3012 RMK AO1 T01750167
KW78 230930Z AUTO 03005KT 10SM OVC005 18/17 A3012 RMK AO1 T01770169
KW78 230910Z AUTO 01004KT 10SM OVC005 18/17 A3012 RMK AO1 T01780170
KW78 230855Z AUTO 01003KT 10SM OVC005 18/17 A3012 RMK AO1 60003 T01790170
KW78 230830Z AUTO 00000KT 10SM OVC005 18/17 A3012 RMK AO1 T01780170
KW78 230810Z AUTO 03004KT 10SM OVC005 18/17 A3011 RMK AO1 T01770170
KW78 230750Z AUTO 00000KT 10SM OVC005 18/17 A3011 RMK AO1 T01770170
KW78 230730Z AUTO 00000KT 10SM BKN005 OVC025 18/17 A3011 RMK AO1 T01760169
KW78 230710Z AUTO 05003KT 10SM BKN005 OVC037 18/17 A3011 RMK AO1 T01760168
KW78 230650Z AUTO 06003KT 10SM SCT005 OVC042 18/17 A3012 RMK AO1 P0003 T01760168
KW78 230630Z AUTO 04004KT 7SM BKN042 OVC048 18/17 A3012 RMK AO1 P0002 T01760168
KW78 230610Z AUTO 01006KT 10SM SCT041 BKN050 OVC060 18/17 A3013 RMK AO1 P0001 T01780170
KW78 230550Z AUTO 34005KT 2SM SCT003 BKN041 OVC065 18/17 A3014 RMK AO1 P0033 T01780170
KW78 230530Z AUTO 36003KT 3SM SCT005 BKN060 OVC075 18/17 A3013 RMK AO1 P0015 T01800171
KW78 230510Z AUTO 03003KT 4SM SCT017 SCT042 OVC060 18/17 A3013 RMK AO1 P0005 T01810173
KW78 230450Z AUTO 35003KT 7SM SCT005 SCT021 OVC070 18/17 A3013 RMK AO1 P0018 T01810173
KW78 230430Z AUTO 06004KT 5SM SCT035 SCT050 OVC070 18/17 A3013 RMK AO1 P0015 T01800172
KW78 230410Z AUTO 04006KT 2 1/2SM SCT019 BKN033 OVC050 18/17 A3014 RMK AO1 P0009 T01810173
KW78 230350Z AUTO 04004KT 2SM BKN019 OVC033 19/18 A3016 RMK AO1 P0036 T01850176
KW78 230330Z AUTO 00000KT 5SM OVC019 19/18 A3016 RMK AO1 P0016 T01900182
KW78 230310Z AUTO 28003KT 5SM OVC021 20/19 A3014 RMK AO1 P0005 T01970189
KW78 230250Z AUTO 36004KT 10SM OVC021 21/19 A3014 RMK AO1 P0001 T02090190
KW78 230230Z AUTO 05008KT 020V080 10SM OVC019 22/20 A3011 RMK AO1 T02180195
KW78 230210Z AUTO 03007KT 10SM OVC019 24/21 A3011 RMK AO1 T02350209
KW78 230150Z AUTO 06006G18KT 10SM OVC017 24/22 A3009 RMK AO1 T02360217
KW78 230130Z AUTO 05007KT 10SM BKN013 OVC019 24/23 A3009 RMK AO1 T02380230
KW78 230110Z AUTO 06008KT 030V100 10SM SCT018 OVC030 25/23 A3007 RMK AO1 T02450225
KW78 230050Z AUTO 08005KT 10SM SCT025 BKN031 OVC048 25/22 A3007 RMK AO1 T02470222
KW78 230030Z AUTO 07005KT 10SM BKN023 BKN033 OVC080 25/22 A3006 RMK AO1 T02490221
KW78 230010Z AUTO 08006KT 10SM SCT023 BKN040 BKN049 25/22 A3006 RMK AO1 T02520220
KW78 222350Z AUTO 08005KT 10SM SCT026 SCT042 BKN055 25/22 A3006 RMK AO1 T02540220
KW78 222330Z AUTO 08005KT 10SM SCT028 SCT036 BKN047 26/22 A3006 RMK AO1 T02560219
KW78 222310Z AUTO 06006KT 10SM BKN030 OVC036 26/22 A3006 RMK AO1 T02600221
KW78 222250Z AUTO 06005KT 10SM BKN032 27/22 A3006 RMK AO1 T02650219
KW78 222230Z AUTO 07003KT 10SM CLR 27/22 A3006 RMK AO1 T02720220
KW78 222210Z AUTO 08004KT 10SM SCT031 SCT039 28/22 A3005 RMK AO1 T02800217
KW78 222150Z AUTO 09007KT 10SM SCT031 29/22 A3005 RMK AO1 T02900218
KW78 222130Z AUTO 09003KT 10SM CLR 29/21 A3004 RMK AO1 T02900212
KW78 222110Z AUTO 10005KT 10SM CLR 29/21 A3004 RMK AO1 T02930212
KW78 222050Z AUTO 08006KT 10SM CLR 30/22 A3004 RMK AO1 T02960217
KW78 222030Z AUTO 08008KT 10SM CLR 30/22 A3004 RMK AO1 T02970215
KW78 222010Z AUTO 11008KT 10SM SCT032 SCT041 SCT050 30/22 A3005 RMK AO1 T03040217
KW78 221950Z AUTO 06005KT 10SM SCT034 BKN041 OVC080 29/21 A3005 RMK AO1 T02920214
KW78 221930Z AUTO 06004KT 10SM SCT034 SCT049 BKN080 31/22 A3006 RMK AO1 T03070215
KW78 221910Z AUTO 10006KT 10SM SCT034 SCT043 31/21 A3006 RMK AO1 T03060214
KW78 221850Z AUTO 08005KT 10SM SCT032 SCT045 BKN060 31/22 A3007 RMK AO1 T03080215
KW78 221830Z AUTO 10006KT 10SM SCT032 SCT050 31/21 A3007 RMK AO1 T03060214
KW78 221810Z AUTO 04004KT 10SM SCT032 SCT050 31/21 A3008 RMK AO1 T03070213
KW78 221750Z AUTO 06005KT 10SM BKN032 BKN038 BKN045 30/22 A3009 RMK AO1 T02970216
KW78 221730Z AUTO 02004KT 10SM BKN032 BKN039 29/22 A3009 RMK AO1 T02880215